sensor_id;sensor_type;location;lat;lon;timestamp;temperature;humidity
16578;DHT22;8401;52.528;13.340;2023-04-25T00:02:10;9.60;99.90
16578;DHT22;8401;52.528;13.340;2023-04-25T00:04:36;9.70;99.90
16578;DHT22;8401;52.528;13.340;2023-04-25T00:07:03;9.70;99.90
16578;DHT22;8401;52.528;13.340;2023-04-25T00:09:29;9.70;99.90
16578;DHT22;8401;52.528;13.340;2023-04-25T00:11:55;9.70;99.90
16578;DHT22;8401;52.528;13.340;2023-04-25T00:14:21;9.70;99.90
16578;DHT22;8401;52.528;13.340;2023-04-25T00:16:48;9.70;99.90
16578;DHT22;8401;52.528;13.340;2023-04-25T00:19:14;9.70;99.90
16578;DHT22;8401;52.528;13.340;2023-04-25T00:21:39;9.60;99.90
16578;DHT22;8401;52.528;13.340;2023-04-25T00:24:08;9.50;99.90
16578;DHT22;8401;52.528;13.340;2023-04-25T00:26:34;9.50;99.90
16578;DHT22;8401;52.528;13.340;2023-04-25T00:29:01;9.50;99.90
16578;DHT22;8401;52.528;13.340;2023-04-25T00:31:27;9.50;99.90
16578;DHT22;8401;52.528;13.340;2023-04-25T00:33:54;9.60;99.90
16578;DHT22;8401;52.528;13.340;2023-04-25T00:36:20;9.50;99.90
16578;DHT22;8401;52.528;13.340;2023-04-25T00:38:45;9.60;99.90
16578;DHT22;8401;52.528;13.340;2023-04-25T00:41:11;9.60;99.90
16578;DHT22;8401;52.528;13.340;2023-04-25T00:43:37;9.70;99.90
16578;DHT22;8401;52.528;13.340;2023-04-25T00:46:03;9.60;99.90
16578;DHT22;8401;52.528;13.340;2023-04-25T00:48:29;9.60;99.90
16578;DHT22;8401;52.528;13.340;2023-04-25T00:50:58;9.60;99.90
16578;DHT22;8401;52.528;13.340;2023-04-25T00:53:26;9.50;99.90
16578;DHT22;8401;52.528;13.340;2023-04-25T00:55:52;9.50;99.90
16578;DHT22;8401;52.528;13.340;2023-04-25T00:58:21;9.50;99.90
16578;DHT22;8401;52.528;13.340;2023-04-25T01:00:48;9.50;99.90
16578;DHT22;8401;52.528;13.340;2023-04-25T01:03:16;9.50;99.90
16578;DHT22;8401;52.528;13.340;2023-04-25T01:05:43;9.50;99.90
16578;DHT22;8401;52.528;13.340;2023-04-25T01:08:09;9.60;99.90
16578;DHT22;8401;52.528;13.340;2023-04-25T01:10:35;9.50;99.90
16578;DHT22;8401;52.528;13.340;2023-04-25T01:13:01;9.50;99.90
16578;DHT22;8401;52.528;13.340;2023-04-25T01:15:27;9.40;99.90
16578;DHT22;8401;52.528;13.340;2023-04-25T01:17:53;9.40;99.90
16578;DHT22;8401;52.528;13.340;2023-04-25T01:20:23;9.50;99.90
16578;DHT22;8401;52.528;13.340;2023-04-25T01:22:51;9.40;99.90
16578;DHT22;8401;52.528;13.340;2023-04-25T01:25:18;9.50;99.90
16578;DHT22;8401;52.528;13.340;2023-04-25T01:27:44;9.50;99.90
16578;DHT22;8401;52.528;13.340;2023-04-25T01:30:10;9.50;99.90
16578;DHT22;8401;52.528;13.340;2023-04-25T01:32:36;9.50;99.90
16578;DHT22;8401;52.528;13.340;2023-04-25T01:35:06;9.40;99.90
16578;DHT22;8401;52.528;13.340;2023-04-25T01:37:38;9.40;99.90
16578;DHT22;8401;52.528;13.340;2023-04-25T01:40:05;9.40;99.90
16578;DHT22;8401;52.528;13.340;2023-04-25T01:42:32;9.40;99.90
16578;DHT22;8401;52.528;13.340;2023-04-25T01:44:58;9.40;99.90
16578;DHT22;8401;52.528;13.340;2023-04-25T01:47:24;9.40;99.90
16578;DHT22;8401;52.528;13.340;2023-04-25T01:49:50;9.50;99.90
16578;DHT22;8401;52.528;13.340;2023-04-25T01:52:16;9.40;99.90
16578;DHT22;8401;52.528;13.340;2023-04-25T01:54:41;9.50;99.90
16578;DHT22;8401;52.528;13.340;2023-04-25T01:57:10;9.50;99.90
16578;DHT22;8401;52.528;13.340;2023-04-25T01:59:36;9.40;99.90
16578;DHT22;8401;52.528;13.340;2023-04-25T02:02:02;9.40;99.90
16578;DHT22;8401;52.528;13.340;2023-04-25T02:04:31;9.50;99.90
16578;DHT22;8401;52.528;13.340;2023-04-25T02:06:56;9.40;99.90
16578;DHT22;8401;52.528;13.340;2023-04-25T02:09:22;9.40;99.90
16578;DHT22;8401;52.528;13.340;2023-04-25T02:11:48;9.40;99.90
16578;DHT22;8401;52.528;13.340;2023-04-25T02:14:14;9.40;99.90
16578;DHT22;8401;52.528;13.340;2023-04-25T02:16:40;9.40;99.90
16578;DHT22;8401;52.528;13.340;2023-04-25T02:19:06;9.30;99.90
16578;DHT22;8401;52.528;13.340;2023-04-25T02:21:32;9.30;99.90
16578;DHT22;8401;52.528;13.340;2023-04-25T02:23:58;9.40;99.90
16578;DHT22;8401;52.528;13.340;2023-04-25T02:26:23;9.20;99.90
16578;DHT22;8401;52.528;13.340;2023-04-25T02:28:50;9.20;99.90
16578;DHT22;8401;52.528;13.340;2023-04-25T02:31:16;9.20;99.90
16578;DHT22;8401;52.528;13.340;2023-04-25T02:33:42;9.30;99.90
16578;DHT22;8401;52.528;13.340;2023-04-25T02:36:08;9.30;99.90
16578;DHT22;8401;52.528;13.340;2023-04-25T02:38:34;9.20;99.90
16578;DHT22;8401;52.528;13.340;2023-04-25T02:40:59;9.30;99.90
16578;DHT22;8401;52.528;13.340;2023-04-25T02:43:25;9.20;99.90
16578;DHT22;8401;52.528;13.340;2023-04-25T02:45:51;9.30;99.90
16578;DHT22;8401;52.528;13.340;2023-04-25T02:48:16;9.30;99.90
16578;DHT22;8401;52.528;13.340;2023-04-25T02:50:42;9.30;99.90
16578;DHT22;8401;52.528;13.340;2023-04-25T02:53:08;9.30;99.90
16578;DHT22;8401;52.528;13.340;2023-04-25T02:55:33;9.30;99.90
16578;DHT22;8401;52.528;13.340;2023-04-25T02:57:59;9.30;99.90
16578;DHT22;8401;52.528;13.340;2023-04-25T03:00:24;9.30;99.90
16578;DHT22;8401;52.528;13.340;2023-04-25T03:02:50;9.30;99.90
16578;DHT22;8401;52.528;13.340;2023-04-25T03:05:16;9.30;99.90
16578;DHT22;8401;52.528;13.340;2023-04-25T03:07:42;9.30;99.90
16578;DHT22;8401;52.528;13.340;2023-04-25T03:10:10;9.30;99.90
16578;DHT22;8401;52.528;13.340;2023-04-25T03:12:36;9.20;99.90
16578;DHT22;8401;52.528;13.340;2023-04-25T03:15:02;9.20;99.90
16578;DHT22;8401;52.528;13.340;2023-04-25T03:17:27;9.10;99.90
16578;DHT22;8401;52.528;13.340;2023-04-25T03:19:54;9.10;99.90
16578;DHT22;8401;52.528;13.340;2023-04-25T03:22:19;9.10;99.90
16578;DHT22;8401;52.528;13.340;2023-04-25T03:24:45;9.10;99.90
16578;DHT22;8401;52.528;13.340;2023-04-25T03:27:11;9.10;99.90
16578;DHT22;8401;52.528;13.340;2023-04-25T03:29:36;9.10;99.90
16578;DHT22;8401;52.528;13.340;2023-04-25T03:32:02;9.10;99.90
16578;DHT22;8401;52.528;13.340;2023-04-25T03:34:28;9.00;99.90
16578;DHT22;8401;52.528;13.340;2023-04-25T03:36:54;9.10;99.90
16578;DHT22;8401;52.528;13.340;2023-04-25T03:39:19;8.90;99.90
16578;DHT22;8401;52.528;13.340;2023-04-25T03:41:45;8.90;99.90
16578;DHT22;8401;52.528;13.340;2023-04-25T03:44:10;9.00;99.90
16578;DHT22;8401;52.528;13.340;2023-04-25T03:46:36;9.00;99.90
16578;DHT22;8401;52.528;13.340;2023-04-25T03:49:01;9.00;99.90
16578;DHT22;8401;52.528;13.340;2023-04-25T03:51:27;9.00;99.90
16578;DHT22;8401;52.528;13.340;2023-04-25T03:53:53;9.00;99.90
16578;DHT22;8401;52.528;13.340;2023-04-25T03:56:18;9.00;99.90
16578;DHT22;8401;52.528;13.340;2023-04-25T03:58:45;8.90;99.90
16578;DHT22;8401;52.528;13.340;2023-04-25T04:01:11;8.80;99.90
16578;DHT22;8401;52.528;13.340;2023-04-25T04:03:37;8.90;99.90
16578;DHT22;8401;52.528;13.340;2023-04-25T04:06:04;9.00;99.90
16578;DHT22;8401;52.528;13.340;2023-04-25T04:08:31;9.00;99.90
16578;DHT22;8401;52.528;13.340;2023-04-25T04:10:59;9.00;99.90
16578;DHT22;8401;52.528;13.340;2023-04-25T04:13:28;8.90;99.90
16578;DHT22;8401;52.528;13.340;2023-04-25T04:15:54;8.90;99.90
16578;DHT22;8401;52.528;13.340;2023-04-25T04:18:21;9.00;99.90
16578;DHT22;8401;52.528;13.340;2023-04-25T04:20:47;9.00;99.90
16578;DHT22;8401;52.528;13.340;2023-04-25T04:23:12;9.00;99.90
16578;DHT22;8401;52.528;13.340;2023-04-25T04:25:38;8.90;99.90
16578;DHT22;8401;52.528;13.340;2023-04-25T04:28:05;8.90;99.90
16578;DHT22;8401;52.528;13.340;2023-04-25T04:30:31;8.90;99.90
16578;DHT22;8401;52.528;13.340;2023-04-25T04:32:58;8.90;99.90
16578;DHT22;8401;52.528;13.340;2023-04-25T04:35:26;9.00;99.90
16578;DHT22;8401;52.528;13.340;2023-04-25T04:37:51;9.00;99.90
16578;DHT22;8401;52.528;13.340;2023-04-25T04:40:17;9.00;99.90
16578;DHT22;8401;52.528;13.340;2023-04-25T04:42:44;9.10;99.90
16578;DHT22;8401;52.528;13.340;2023-04-25T04:45:14;9.10;99.90
16578;DHT22;8401;52.528;13.340;2023-04-25T04:47:39;9.10;99.90
16578;DHT22;8401;52.528;13.340;2023-04-25T04:50:09;9.10;99.90
16578;DHT22;8401;52.528;13.340;2023-04-25T04:52:36;9.00;99.90
16578;DHT22;8401;52.528;13.340;2023-04-25T04:55:03;9.20;99.90
16578;DHT22;8401;52.528;13.340;2023-04-25T04:57:29;9.10;99.90
16578;DHT22;8401;52.528;13.340;2023-04-25T04:59:56;9.00;99.90
16578;DHT22;8401;52.528;13.340;2023-04-25T05:02:22;9.00;99.90
16578;DHT22;8401;52.528;13.340;2023-04-25T05:04:48;9.10;99.90
16578;DHT22;8401;52.528;13.340;2023-04-25T05:07:13;9.10;99.90
16578;DHT22;8401;52.528;13.340;2023-04-25T05:09:39;9.10;99.90
16578;DHT22;8401;52.528;13.340;2023-04-25T05:12:05;9.00;99.90
16578;DHT22;8401;52.528;13.340;2023-04-25T05:14:30;9.10;99.90
16578;DHT22;8401;52.528;13.340;2023-04-25T05:16:56;9.00;99.90
16578;DHT22;8401;52.528;13.340;2023-04-25T05:19:22;9.00;99.90
16578;DHT22;8401;52.528;13.340;2023-04-25T05:21:48;9.00;99.90
16578;DHT22;8401;52.528;13.340;2023-04-25T05:24:14;9.00;99.90
16578;DHT22;8401;52.528;13.340;2023-04-25T05:26:40;9.10;99.90
16578;DHT22;8401;52.528;13.340;2023-04-25T05:29:06;9.00;99.90
16578;DHT22;8401;52.528;13.340;2023-04-25T05:31:32;9.10;99.90
16578;DHT22;8401;52.528;13.340;2023-04-25T05:33:58;9.10;99.90
16578;DHT22;8401;52.528;13.340;2023-04-25T05:36:23;9.20;99.90
16578;DHT22;8401;52.528;13.340;2023-04-25T05:38:49;9.20;99.90
16578;DHT22;8401;52.528;13.340;2023-04-25T05:41:15;9.30;99.90
16578;DHT22;8401;52.528;13.340;2023-04-25T05:43:40;9.30;99.90
16578;DHT22;8401;52.528;13.340;2023-04-25T05:46:10;9.50;99.90
16578;DHT22;8401;52.528;13.340;2023-04-25T05:48:37;9.30;99.90
16578;DHT22;8401;52.528;13.340;2023-04-25T05:51:02;9.20;99.90
16578;DHT22;8401;52.528;13.340;2023-04-25T05:53:28;9.30;99.90
16578;DHT22;8401;52.528;13.340;2023-04-25T05:55:54;9.20;99.90
16578;DHT22;8401;52.528;13.340;2023-04-25T05:58:19;9.20;99.90
16578;DHT22;8401;52.528;13.340;2023-04-25T06:00:45;9.10;99.90
16578;DHT22;8401;52.528;13.340;2023-04-25T06:03:11;9.10;99.90
16578;DHT22;8401;52.528;13.340;2023-04-25T06:05:41;9.20;99.90
16578;DHT22;8401;52.528;13.340;2023-04-25T06:08:06;9.20;99.90
16578;DHT22;8401;52.528;13.340;2023-04-25T06:10:32;9.20;99.90
16578;DHT22;8401;52.528;13.340;2023-04-25T06:12:57;9.20;99.90
16578;DHT22;8401;52.528;13.340;2023-04-25T06:15:23;9.30;99.90
16578;DHT22;8401;52.528;13.340;2023-04-25T06:17:49;9.30;99.90
16578;DHT22;8401;52.528;13.340;2023-04-25T06:20:14;9.20;99.90
16578;DHT22;8401;52.528;13.340;2023-04-25T06:22:40;9.30;99.90
16578;DHT22;8401;52.528;13.340;2023-04-25T06:25:06;9.30;99.90
16578;DHT22;8401;52.528;13.340;2023-04-25T06:27:35;9.30;99.90
16578;DHT22;8401;52.528;13.340;2023-04-25T06:30:01;9.20;99.90
16578;DHT22;8401;52.528;13.340;2023-04-25T06:32:26;9.20;99.90
16578;DHT22;8401;52.528;13.340;2023-04-25T06:34:53;9.20;99.90
16578;DHT22;8401;52.528;13.340;2023-04-25T06:37:19;9.30;99.90
16578;DHT22;8401;52.528;13.340;2023-04-25T06:39:45;9.20;99.90
16578;DHT22;8401;52.528;13.340;2023-04-25T06:42:11;9.10;99.90
16578;DHT22;8401;52.528;13.340;2023-04-25T06:44:36;9.10;99.90
16578;DHT22;8401;52.528;13.340;2023-04-25T06:47:02;9.10;99.90
16578;DHT22;8401;52.528;13.340;2023-04-25T06:49:28;9.10;99.90
16578;DHT22;8401;52.528;13.340;2023-04-25T06:51:54;9.10;99.90
16578;DHT22;8401;52.528;13.340;2023-04-25T06:54:19;9.10;99.90
16578;DHT22;8401;52.528;13.340;2023-04-25T06:56:45;9.20;99.90
16578;DHT22;8401;52.528;13.340;2023-04-25T06:59:11;9.30;99.90
16578;DHT22;8401;52.528;13.340;2023-04-25T07:01:37;9.20;99.90
16578;DHT22;8401;52.528;13.340;2023-04-25T07:04:02;9.30;99.90
16578;DHT22;8401;52.528;13.340;2023-04-25T07:06:28;9.20;99.90
16578;DHT22;8401;52.528;13.340;2023-04-25T07:08:54;9.30;99.90
16578;DHT22;8401;52.528;13.340;2023-04-25T07:11:21;9.30;99.90
16578;DHT22;8401;52.528;13.340;2023-04-25T07:13:46;9.30;99.90
16578;DHT22;8401;52.528;13.340;2023-04-25T07:16:12;9.10;99.90
16578;DHT22;8401;52.528;13.340;2023-04-25T07:18:37;9.00;99.90
16578;DHT22;8401;52.528;13.340;2023-04-25T07:21:04;8.90;99.90
16578;DHT22;8401;52.528;13.340;2023-04-25T07:23:29;8.90;99.90
16578;DHT22;8401;52.528;13.340;2023-04-25T07:25:55;9.10;99.90
16578;DHT22;8401;52.528;13.340;2023-04-25T07:28:21;8.90;99.90
16578;DHT22;8401;52.528;13.340;2023-04-25T07:30:47;8.80;99.90
16578;DHT22;8401;52.528;13.340;2023-04-25T07:33:12;8.80;99.90
16578;DHT22;8401;52.528;13.340;2023-04-25T07:35:38;8.80;99.90
16578;DHT22;8401;52.528;13.340;2023-04-25T07:38:04;9.00;99.90
16578;DHT22;8401;52.528;13.340;2023-04-25T07:40:32;9.10;99.90
16578;DHT22;8401;52.528;13.340;2023-04-25T07:42:57;9.10;99.90
16578;DHT22;8401;52.528;13.340;2023-04-25T07:45:23;9.20;99.90
16578;DHT22;8401;52.528;13.340;2023-04-25T07:47:49;9.10;99.90
16578;DHT22;8401;52.528;13.340;2023-04-25T07:50:15;9.10;99.90
16578;DHT22;8401;52.528;13.340;2023-04-25T07:52:41;9.30;99.90
16578;DHT22;8401;52.528;13.340;2023-04-25T07:55:07;9.40;99.90
16578;DHT22;8401;52.528;13.340;2023-04-25T07:57:32;9.30;99.90
16578;DHT22;8401;52.528;13.340;2023-04-25T07:59:58;9.20;99.90
16578;DHT22;8401;52.528;13.340;2023-04-25T08:02:23;9.30;99.90
16578;DHT22;8401;52.528;13.340;2023-04-25T08:04:51;9.50;99.90
16578;DHT22;8401;52.528;13.340;2023-04-25T08:07:17;9.50;99.90
16578;DHT22;8401;52.528;13.340;2023-04-25T08:09:42;9.60;99.90
16578;DHT22;8401;52.528;13.340;2023-04-25T08:12:08;9.80;99.90
16578;DHT22;8401;52.528;13.340;2023-04-25T08:14:34;9.70;99.90
16578;DHT22;8401;52.528;13.340;2023-04-25T08:17:03;9.60;99.90
16578;DHT22;8401;52.528;13.340;2023-04-25T08:19:31;9.60;99.90
16578;DHT22;8401;52.528;13.340;2023-04-25T08:21:57;9.70;99.90
16578;DHT22;8401;52.528;13.340;2023-04-25T08:24:23;9.80;99.90
16578;DHT22;8401;52.528;13.340;2023-04-25T08:26:49;10.20;99.90
16578;DHT22;8401;52.528;13.340;2023-04-25T08:29:15;10.40;99.90
16578;DHT22;8401;52.528;13.340;2023-04-25T08:31:40;10.20;99.90
16578;DHT22;8401;52.528;13.340;2023-04-25T08:34:06;10.10;99.90
16578;DHT22;8401;52.528;13.340;2023-04-25T08:36:32;10.10;99.90
16578;DHT22;8401;52.528;13.340;2023-04-25T08:38:58;9.90;99.90
16578;DHT22;8401;52.528;13.340;2023-04-25T08:41:24;9.90;99.90
16578;DHT22;8401;52.528;13.340;2023-04-25T08:43:51;10.00;99.90
16578;DHT22;8401;52.528;13.340;2023-04-25T08:46:20;10.20;99.90
16578;DHT22;8401;52.528;13.340;2023-04-25T08:48:46;10.70;99.90
16578;DHT22;8401;52.528;13.340;2023-04-25T08:51:25;11.50;99.90
16578;DHT22;8401;52.528;13.340;2023-04-25T08:53:52;12.20;99.90
16578;DHT22;8401;52.528;13.340;2023-04-25T08:56:18;12.10;99.90
16578;DHT22;8401;52.528;13.340;2023-04-25T08:58:48;11.60;99.90
16578;DHT22;8401;52.528;13.340;2023-04-25T09:01:14;12.20;99.90
16578;DHT22;8401;52.528;13.340;2023-04-25T09:03:40;13.40;99.90
16578;DHT22;8401;52.528;13.340;2023-04-25T09:06:06;14.40;99.90
16578;DHT22;8401;52.528;13.340;2023-04-25T09:08:32;14.10;99.90
16578;DHT22;8401;52.528;13.340;2023-04-25T09:10:58;15.20;99.90
16578;DHT22;8401;52.528;13.340;2023-04-25T09:13:27;16.10;99.90
16578;DHT22;8401;52.528;13.340;2023-04-25T09:15:57;16.60;99.90
16578;DHT22;8401;52.528;13.340;2023-04-25T09:18:31;14.90;99.90
16578;DHT22;8401;52.528;13.340;2023-04-25T09:21:10;13.90;99.90
16578;DHT22;8401;52.528;13.340;2023-04-25T09:23:46;13.20;99.90
16578;DHT22;8401;52.528;13.340;2023-04-25T09:26:20;12.80;99.90
16578;DHT22;8401;52.528;13.340;2023-04-25T09:28:46;13.00;99.90
16578;DHT22;8401;52.528;13.340;2023-04-25T09:31:21;13.00;99.90
16578;DHT22;8401;52.528;13.340;2023-04-25T09:33:47;13.30;99.90
16578;DHT22;8401;52.528;13.340;2023-04-25T09:36:13;13.90;99.90
16578;DHT22;8401;52.528;13.340;2023-04-25T09:38:43;15.40;99.90
16578;DHT22;8401;52.528;13.340;2023-04-25T09:41:10;14.70;99.90
16578;DHT22;8401;52.528;13.340;2023-04-25T09:43:37;13.50;99.90
16578;DHT22;8401;52.528;13.340;2023-04-25T09:46:04;12.80;99.90
16578;DHT22;8401;52.528;13.340;2023-04-25T09:48:33;12.10;99.90
16578;DHT22;8401;52.528;13.340;2023-04-25T09:51:10;12.00;99.90
16578;DHT22;8401;52.528;13.340;2023-04-25T09:53:41;11.90;99.90
16578;DHT22;8401;52.528;13.340;2023-04-25T09:56:09;11.40;99.90
16578;DHT22;8401;52.528;13.340;2023-04-25T09:58:36;11.20;99.90
16578;DHT22;8401;52.528;13.340;2023-04-25T10:01:07;11.30;99.90
16578;DHT22;8401;52.528;13.340;2023-04-25T10:03:37;12.40;99.90
16578;DHT22;8401;52.528;13.340;2023-04-25T10:06:16;12.70;99.90
16578;DHT22;8401;52.528;13.340;2023-04-25T10:08:44;12.80;99.90
16578;DHT22;8401;52.528;13.340;2023-04-25T10:11:11;12.50;99.90
16578;DHT22;8401;52.528;13.340;2023-04-25T10:13:40;12.70;99.90
16578;DHT22;8401;52.528;13.340;2023-04-25T10:16:06;12.50;99.90
16578;DHT22;8401;52.528;13.340;2023-04-25T10:18:32;13.60;99.90
16578;DHT22;8401;52.528;13.340;2023-04-25T10:21:00;13.40;99.90
16578;DHT22;8401;52.528;13.340;2023-04-25T10:23:27;13.20;99.90
16578;DHT22;8401;52.528;13.340;2023-04-25T10:25:55;12.90;99.90
16578;DHT22;8401;52.528;13.340;2023-04-25T10:28:21;12.70;99.90
16578;DHT22;8401;52.528;13.340;2023-04-25T10:31:03;12.20;99.90
16578;DHT22;8401;52.528;13.340;2023-04-25T10:33:40;11.50;99.90
16578;DHT22;8401;52.528;13.340;2023-04-25T10:36:30;11.40;99.90
16578;DHT22;8401;52.528;13.340;2023-04-25T10:38:58;11.70;99.90
16578;DHT22;8401;52.528;13.340;2023-04-25T10:41:32;12.10;99.90
16578;DHT22;8401;52.528;13.340;2023-04-25T10:44:10;12.00;99.90
16578;DHT22;8401;52.528;13.340;2023-04-25T10:46:36;12.10;99.90
16578;DHT22;8401;52.528;13.340;2023-04-25T10:49:02;12.10;99.90
16578;DHT22;8401;52.528;13.340;2023-04-25T10:51:29;11.70;99.90
16578;DHT22;8401;52.528;13.340;2023-04-25T10:54:00;11.50;99.90
16578;DHT22;8401;52.528;13.340;2023-04-25T10:56:27;11.40;99.90
16578;DHT22;8401;52.528;13.340;2023-04-25T11:01:42;12.30;99.90
16578;DHT22;8401;52.528;13.340;2023-04-25T11:04:23;12.10;99.90
16578;DHT22;8401;52.528;13.340;2023-04-25T11:07:13;12.20;99.90
16578;DHT22;8401;52.528;13.340;2023-04-25T11:09:42;12.00;99.90
16578;DHT22;8401;52.528;13.340;2023-04-25T11:12:10;12.10;99.90
16578;DHT22;8401;52.528;13.340;2023-04-25T11:14:40;11.50;99.90
16578;DHT22;8401;52.528;13.340;2023-04-25T11:17:06;11.30;99.90
16578;DHT22;8401;52.528;13.340;2023-04-25T11:19:32;11.10;99.90
16578;DHT22;8401;52.528;13.340;2023-04-25T11:22:01;10.70;99.90
16578;DHT22;8401;52.528;13.340;2023-04-25T11:24:34;10.80;99.90
16578;DHT22;8401;52.528;13.340;2023-04-25T11:27:01;10.90;99.90
16578;DHT22;8401;52.528;13.340;2023-04-25T11:29:28;10.80;99.90
16578;DHT22;8401;52.528;13.340;2023-04-25T11:31:55;10.60;99.90
16578;DHT22;8401;52.528;13.340;2023-04-25T11:34:24;10.70;99.90
16578;DHT22;8401;52.528;13.340;2023-04-25T11:36:50;10.80;99.90
16578;DHT22;8401;52.528;13.340;2023-04-25T11:39:18;10.70;99.90
16578;DHT22;8401;52.528;13.340;2023-04-25T11:41:44;10.80;99.90
16578;DHT22;8401;52.528;13.340;2023-04-25T11:44:10;11.10;99.90
16578;DHT22;8401;52.528;13.340;2023-04-25T11:46:35;10.80;99.90
16578;DHT22;8401;52.528;13.340;2023-04-25T11:49:01;10.90;99.90
16578;DHT22;8401;52.528;13.340;2023-04-25T11:51:27;11.00;99.90
16578;DHT22;8401;52.528;13.340;2023-04-25T11:53:53;10.80;99.90
16578;DHT22;8401;52.528;13.340;2023-04-25T11:56:19;10.60;99.90
16578;DHT22;8401;52.528;13.340;2023-04-25T11:59:14;10.70;99.90
16578;DHT22;8401;52.528;13.340;2023-04-25T12:01:48;10.80;99.90
16578;DHT22;8401;52.528;13.340;2023-04-25T12:06:42;10.80;99.90
16578;DHT22;8401;52.528;13.340;2023-04-25T12:09:10;10.80;99.90
16578;DHT22;8401;52.528;13.340;2023-04-25T12:12:04;10.80;99.90
16578;DHT22;8401;52.528;13.340;2023-04-25T12:14:34;10.90;99.90
16578;DHT22;8401;52.528;13.340;2023-04-25T12:17:02;10.70;99.90
16578;DHT22;8401;52.528;13.340;2023-04-25T12:19:34;10.60;99.90
16578;DHT22;8401;52.528;13.340;2023-04-25T12:22:07;10.60;99.90
16578;DHT22;8401;52.528;13.340;2023-04-25T12:24:44;10.80;99.90
16578;DHT22;8401;52.528;13.340;2023-04-25T12:27:10;11.00;99.90
16578;DHT22;8401;52.528;13.340;2023-04-25T12:29:36;11.20;99.90
16578;DHT22;8401;52.528;13.340;2023-04-25T12:32:01;11.20;99.90
16578;DHT22;8401;52.528;13.340;2023-04-25T12:34:27;11.30;99.90
16578;DHT22;8401;52.528;13.340;2023-04-25T12:36:53;11.30;99.90
16578;DHT22;8401;52.528;13.340;2023-04-25T12:39:21;11.40;99.90
16578;DHT22;8401;52.528;13.340;2023-04-25T12:41:48;11.30;99.90
16578;DHT22;8401;52.528;13.340;2023-04-25T12:44:14;11.40;99.90
16578;DHT22;8401;52.528;13.340;2023-04-25T12:46:40;11.20;99.90
16578;DHT22;8401;52.528;13.340;2023-04-25T12:49:07;11.10;99.90
16578;DHT22;8401;52.528;13.340;2023-04-25T12:51:34;10.80;99.90
16578;DHT22;8401;52.528;13.340;2023-04-25T12:54:01;10.80;99.90
16578;DHT22;8401;52.528;13.340;2023-04-25T12:56:27;10.90;99.90
16578;DHT22;8401;52.528;13.340;2023-04-25T12:58:53;10.80;99.90
16578;DHT22;8401;52.528;13.340;2023-04-25T13:01:19;10.90;99.90
16578;DHT22;8401;52.528;13.340;2023-04-25T13:03:45;10.90;99.90
16578;DHT22;8401;52.528;13.340;2023-04-25T13:06:11;11.00;99.90
16578;DHT22;8401;52.528;13.340;2023-04-25T13:08:38;11.30;99.90
16578;DHT22;8401;52.528;13.340;2023-04-25T13:11:05;11.40;99.90
16578;DHT22;8401;52.528;13.340;2023-04-25T13:13:31;11.80;99.90
16578;DHT22;8401;52.528;13.340;2023-04-25T13:15:57;12.20;99.90
16578;DHT22;8401;52.528;13.340;2023-04-25T13:18:23;11.90;99.90
16578;DHT22;8401;52.528;13.340;2023-04-25T13:20:55;11.80;99.90
16578;DHT22;8401;52.528;13.340;2023-04-25T13:23:21;11.70;99.90
16578;DHT22;8401;52.528;13.340;2023-04-25T13:25:47;11.50;99.90
16578;DHT22;8401;52.528;13.340;2023-04-25T13:28:13;11.40;99.90
16578;DHT22;8401;52.528;13.340;2023-04-25T13:30:39;11.10;99.90
16578;DHT22;8401;52.528;13.340;2023-04-25T13:33:04;11.20;99.90
16578;DHT22;8401;52.528;13.340;2023-04-25T13:35:33;11.40;99.90
16578;DHT22;8401;52.528;13.340;2023-04-25T13:37:59;11.40;99.90
16578;DHT22;8401;52.528;13.340;2023-04-25T13:40:25;11.70;99.90
16578;DHT22;8401;52.528;13.340;2023-04-25T13:42:52;11.50;99.90
16578;DHT22;8401;52.528;13.340;2023-04-25T13:45:18;11.40;99.90
16578;DHT22;8401;52.528;13.340;2023-04-25T13:47:44;11.60;99.90
16578;DHT22;8401;52.528;13.340;2023-04-25T13:50:09;11.80;99.90
16578;DHT22;8401;52.528;13.340;2023-04-25T13:52:35;11.80;99.90
16578;DHT22;8401;52.528;13.340;2023-04-25T13:55:01;11.90;99.90
16578;DHT22;8401;52.528;13.340;2023-04-25T13:57:30;11.90;99.90
16578;DHT22;8401;52.528;13.340;2023-04-25T13:59:55;11.90;99.90
16578;DHT22;8401;52.528;13.340;2023-04-25T14:02:21;12.20;99.90
16578;DHT22;8401;52.528;13.340;2023-04-25T14:04:47;11.50;99.90
16578;DHT22;8401;52.528;13.340;2023-04-25T14:07:14;11.30;99.90
16578;DHT22;8401;52.528;13.340;2023-04-25T14:09:41;11.10;99.90
16578;DHT22;8401;52.528;13.340;2023-04-25T14:12:07;11.10;99.90
16578;DHT22;8401;52.528;13.340;2023-04-25T14:14:33;10.80;99.90
16578;DHT22;8401;52.528;13.340;2023-04-25T14:16:58;10.70;99.90
16578;DHT22;8401;52.528;13.340;2023-04-25T14:19:24;10.60;99.90
16578;DHT22;8401;52.528;13.340;2023-04-25T14:21:50;10.70;99.90
16578;DHT22;8401;52.528;13.340;2023-04-25T14:24:15;10.80;99.90
16578;DHT22;8401;52.528;13.340;2023-04-25T14:26:41;10.80;99.90
16578;DHT22;8401;52.528;13.340;2023-04-25T14:29:08;10.70;99.90
16578;DHT22;8401;52.528;13.340;2023-04-25T14:31:34;10.50;99.90
16578;DHT22;8401;52.528;13.340;2023-04-25T14:34:01;10.40;99.90
16578;DHT22;8401;52.528;13.340;2023-04-25T14:36:31;10.40;99.90
16578;DHT22;8401;52.528;13.340;2023-04-25T14:38:57;10.70;99.90
16578;DHT22;8401;52.528;13.340;2023-04-25T14:41:23;10.90;99.90
16578;DHT22;8401;52.528;13.340;2023-04-25T14:43:49;11.10;99.90
16578;DHT22;8401;52.528;13.340;2023-04-25T14:46:14;11.10;99.90
16578;DHT22;8401;52.528;13.340;2023-04-25T14:48:40;10.80;99.90
16578;DHT22;8401;52.528;13.340;2023-04-25T14:51:06;10.70;99.90
16578;DHT22;8401;52.528;13.340;2023-04-25T14:53:32;10.50;99.90
16578;DHT22;8401;52.528;13.340;2023-04-25T14:55:57;10.40;99.90
16578;DHT22;8401;52.528;13.340;2023-04-25T14:58:23;10.40;99.90
16578;DHT22;8401;52.528;13.340;2023-04-25T15:00:49;10.40;99.90
16578;DHT22;8401;52.528;13.340;2023-04-25T15:03:16;10.40;99.90
16578;DHT22;8401;52.528;13.340;2023-04-25T15:05:43;10.40;99.90
16578;DHT22;8401;52.528;13.340;2023-04-25T15:08:09;10.40;99.90
16578;DHT22;8401;52.528;13.340;2023-04-25T15:10:36;10.40;99.90
16578;DHT22;8401;52.528;13.340;2023-04-25T15:13:02;10.50;99.90
16578;DHT22;8401;52.528;13.340;2023-04-25T15:15:28;10.40;99.90
16578;DHT22;8401;52.528;13.340;2023-04-25T15:17:54;10.40;99.90
16578;DHT22;8401;52.528;13.340;2023-04-25T15:20:20;10.40;99.90
16578;DHT22;8401;52.528;13.340;2023-04-25T15:22:46;10.50;99.90
16578;DHT22;8401;52.528;13.340;2023-04-25T15:25:15;10.50;99.90
16578;DHT22;8401;52.528;13.340;2023-04-25T15:27:44;10.60;99.90
16578;DHT22;8401;52.528;13.340;2023-04-25T15:30:12;10.70;99.90
16578;DHT22;8401;52.528;13.340;2023-04-25T15:32:46;10.70;99.90
16578;DHT22;8401;52.528;13.340;2023-04-25T15:35:13;10.90;99.90
16578;DHT22;8401;52.528;13.340;2023-04-25T15:37:39;10.70;99.90
16578;DHT22;8401;52.528;13.340;2023-04-25T15:42:42;10.60;99.90
16578;DHT22;8401;52.528;13.340;2023-04-25T15:45:09;10.80;99.90
16578;DHT22;8401;52.528;13.340;2023-04-25T15:47:37;10.80;99.90